createdAt,value
2018-09-28T00:00:18.093Z,10.37
2018-09-28T00:02:46.719Z,9.20
2018-09-28T00:05:15.408Z,8.07
2018-09-28T00:07:44.054Z,7.73
2018-09-28T00:10:12.738Z,10.07
2018-09-28T00:12:41.408Z,9.70
2018-09-28T00:15:10.047Z,6.83
2018-09-28T00:17:38.685Z,8.53
2018-09-28T00:20:07.412Z,9.00
2018-09-28T00:22:35.996Z,9.53
2018-09-28T00:25:04.680Z,9.60
2018-09-28T00:27:33.353Z,8.83
2018-09-28T00:30:01.995Z,8.70
2018-09-28T00:32:30.641Z,8.40
2018-09-28T00:34:59.303Z,9.20
2018-09-28T00:37:27.972Z,10.20
2018-09-28T00:39:56.616Z,12.60
2018-09-28T00:42:25.269Z,8.00
2018-09-28T00:44:53.895Z,7.13
2018-09-28T00:47:22.528Z,9.00
2018-09-28T00:49:51.212Z,7.80
2018-09-28T00:52:19.849Z,8.50
2018-09-28T00:54:48.537Z,9.60
2018-09-28T00:57:17.266Z,8.17
2018-09-28T00:59:45.892Z,8.70
2018-09-28T01:02:14.562Z,8.17
2018-09-28T01:04:43.180Z,8.60
2018-09-28T01:07:11.832Z,8.90
2018-09-28T01:09:40.458Z,9.30
2018-09-28T01:12:09.105Z,9.77
2018-09-28T01:14:37.759Z,11.30
2018-09-28T01:17:06.393Z,9.80
2018-09-28T01:19:35.066Z,7.87
2018-09-28T01:22:03.713Z,11.17
2018-09-28T01:24:32.331Z,10.53
2018-09-28T01:27:00.981Z,7.90
2018-09-28T01:29:29.624Z,12.30
2018-09-28T01:31:58.344Z,7.73
2018-09-28T01:34:26.957Z,9.57
2018-09-28T01:36:55.607Z,9.43
2018-09-28T01:39:24.238Z,11.00
2018-09-28T01:41:52.891Z,9.20
2018-09-28T01:44:21.560Z,7.40
2018-09-28T01:46:50.209Z,9.33
2018-09-28T01:49:18.949Z,8.13
2018-09-28T01:51:47.604Z,8.23
2018-09-28T01:54:16.285Z,7.97
2018-09-28T01:56:44.921Z,8.20
2018-09-28T01:59:13.540Z,8.07
2018-09-28T02:01:42.294Z,8.00
2018-09-28T02:04:10.933Z,8.23
2018-09-28T02:06:39.576Z,8.50
2018-09-28T02:09:08.603Z,7.67
2018-09-28T02:11:37.246Z,8.60
2018-09-28T02:14:05.898Z,7.40
2018-09-28T02:16:34.570Z,8.73
2018-09-28T02:19:03.212Z,11.53
2018-09-28T02:21:31.880Z,9.60
2018-09-28T02:24:00.544Z,7.27
2018-09-28T02:26:29.200Z,10.10
2018-09-28T02:28:57.877Z,7.70
2018-09-28T02:31:26.561Z,12.10
2018-09-28T02:33:55.204Z,8.47
2018-09-28T02:36:23.861Z,8.47
2018-09-28T02:38:52.525Z,9.97
2018-09-28T02:41:21.172Z,9.33
2018-09-28T02:43:49.977Z,9.70
2018-09-28T02:46:18.627Z,9.73
2018-09-28T02:48:47.269Z,9.23
2018-09-28T02:51:15.985Z,10.57
2018-09-28T02:53:44.645Z,10.20
2018-09-28T02:59:06.486Z,9.43
2018-09-28T03:01:35.154Z,10.47
2018-09-28T03:04:03.833Z,9.73
2018-09-28T03:06:32.473Z,8.60
2018-09-28T03:09:01.117Z,10.67
2018-09-28T03:11:29.747Z,10.60
2018-09-28T03:13:58.424Z,9.17
2018-09-28T03:16:27.074Z,10.23
2018-09-28T03:18:55.712Z,9.90
2018-09-28T03:21:24.388Z,9.43
2018-09-28T03:23:53.065Z,9.47
2018-09-28T03:26:21.756Z,10.00
2018-09-28T03:28:50.397Z,10.10
2018-09-28T03:31:19.024Z,9.47
2018-09-28T03:33:47.700Z,10.00
2018-09-28T03:36:16.321Z,9.37
2018-09-28T03:41:38.240Z,12.20
2018-09-28T03:47:00.493Z,9.10
2018-09-28T03:49:33.053Z,9.97
2018-09-28T03:52:01.688Z,9.43
2018-09-28T03:54:30.321Z,9.30
2018-09-28T03:57:06.210Z,9.83
2018-09-28T03:59:34.835Z,11.57
2018-09-28T04:02:03.522Z,9.17
2018-09-28T04:04:32.152Z,10.33
2018-09-28T04:07:00.839Z,10.60
2018-09-28T04:09:29.484Z,10.57
2018-09-28T04:11:58.162Z,10.10
2018-09-28T04:14:26.837Z,9.90
2018-09-28T04:16:55.503Z,13.10
2018-09-28T04:19:24.149Z,9.77
2018-09-28T04:21:58.236Z,12.17
2018-09-28T04:24:27.217Z,11.30
2018-09-28T04:26:56.328Z,11.87
2018-09-28T04:29:25.408Z,13.70
2018-09-28T04:31:54.151Z,13.30
2018-09-28T04:37:15.796Z,9.10
2018-09-28T04:39:44.428Z,10.43
2018-09-28T04:42:13.084Z,10.80
2018-09-28T04:44:41.742Z,9.27
2018-09-28T04:47:10.386Z,9.87
2018-09-28T04:49:39.118Z,9.33
2018-09-28T04:52:07.778Z,9.33
2018-09-28T04:54:36.453Z,9.90
2018-09-28T04:57:05.065Z,10.23
2018-09-28T04:59:33.700Z,12.10
2018-09-28T05:02:02.334Z,17.83
2018-09-28T05:04:30.942Z,11.97
2018-09-28T05:06:59.565Z,10.27
2018-09-28T05:09:28.201Z,11.10
2018-09-28T05:11:56.873Z,11.00
2018-09-28T05:14:25.492Z,12.13
2018-09-28T05:16:54.163Z,13.70
2018-09-28T05:19:26.732Z,12.53
2018-09-28T05:21:55.338Z,12.50
2018-09-28T05:24:24.012Z,15.03
2018-09-28T05:26:52.658Z,12.93
2018-09-28T05:29:23.321Z,13.00
2018-09-28T05:31:52.090Z,11.97
2018-09-28T05:34:20.605Z,14.53
2018-09-28T05:36:49.241Z,12.27
2018-09-28T05:39:17.954Z,13.77
2018-09-28T05:41:46.601Z,14.23
2018-09-28T05:44:15.236Z,11.80
2018-09-28T05:46:43.905Z,11.90
2018-09-28T05:49:12.540Z,12.53
2018-09-28T05:51:41.153Z,11.70
2018-09-28T05:54:10.012Z,12.53
2018-09-28T05:56:38.623Z,13.20
2018-09-28T05:59:12.555Z,15.13
2018-09-28T06:01:46.568Z,14.73
2018-09-28T06:04:20.413Z,12.80
2018-09-28T06:06:49.112Z,11.80
2018-09-28T06:09:17.758Z,13.20
2018-09-28T06:11:46.425Z,15.00
2018-09-28T06:14:15.103Z,14.80
2018-09-28T06:16:43.750Z,16.87
2018-09-28T06:19:12.356Z,12.50
2018-09-28T06:21:40.981Z,17.83
2018-09-28T06:24:09.652Z,13.93
2018-09-28T06:26:38.285Z,13.73
2018-09-28T06:29:06.980Z,19.03
2018-09-28T06:31:35.621Z,17.10
2018-09-28T06:34:04.257Z,14.23
2018-09-28T06:36:32.915Z,16.87
2018-09-28T06:39:01.569Z,15.87
2018-09-28T06:41:30.245Z,20.13
2018-09-28T06:43:58.916Z,15.03
2018-09-28T06:46:27.561Z,14.03
2018-09-28T06:48:56.197Z,13.40
2018-09-28T06:51:24.873Z,17.30
2018-09-28T06:53:53.661Z,13.67
2018-09-28T06:56:22.332Z,14.17
2018-09-28T06:58:50.962Z,20.40
2018-09-28T07:01:19.594Z,21.37
2018-09-28T07:03:48.245Z,16.43
2018-09-28T07:09:11.727Z,16.20
2018-09-28T07:11:40.660Z,21.03
2018-09-28T07:14:09.918Z,19.20
2018-09-28T07:19:32.063Z,15.50
2018-09-28T07:22:00.712Z,12.93
2018-09-28T07:24:29.339Z,13.70
2018-09-28T07:26:57.973Z,15.73
2018-09-28T07:29:26.620Z,20.73
2018-09-28T07:31:55.255Z,15.37
2018-09-28T07:34:23.988Z,15.80
2018-09-28T07:36:52.678Z,14.40
2018-09-28T07:39:21.281Z,14.50
2018-09-28T07:41:50.018Z,14.33
2018-09-28T07:44:18.648Z,12.37
2018-09-28T07:46:47.285Z,13.03
2018-09-28T07:49:15.951Z,11.93
2018-09-28T07:51:44.609Z,10.53
2018-09-28T07:54:12.875Z,13.53
2018-09-28T07:56:41.517Z,13.73
2018-09-28T07:59:10.171Z,11.03
2018-09-28T08:01:38.789Z,10.57
2018-09-28T08:04:07.606Z,11.90
2018-09-28T08:18:09.990Z,10.73
2018-09-28T08:20:38.608Z,10.47
2018-09-28T08:23:07.248Z,13.00
2018-09-28T08:25:35.902Z,12.07
2018-09-28T08:28:04.550Z,15.47
2018-09-28T08:30:33.284Z,10.57
2018-09-28T08:33:01.913Z,15.23
2018-09-28T08:35:30.601Z,11.00
2018-09-28T08:37:59.293Z,12.00
2018-09-28T08:40:27.906Z,9.97
2018-09-28T08:42:56.557Z,12.93
2018-09-28T08:45:25.217Z,10.93
2018-09-28T08:47:53.949Z,9.80
2018-09-28T08:50:22.598Z,10.90
2018-09-28T08:52:51.217Z,11.63
2018-09-28T08:55:19.909Z,10.97
2018-09-28T08:57:48.547Z,11.40
2018-09-28T09:00:17.172Z,10.77
2018-09-28T09:02:45.876Z,12.70
2018-09-28T09:05:14.673Z,10.10
2018-09-28T09:07:43.312Z,11.70
2018-09-28T09:10:12.144Z,12.23
2018-09-28T09:12:41.121Z,9.80
2018-09-28T09:15:09.856Z,9.87
2018-09-28T09:17:38.547Z,11.30
2018-09-28T09:20:07.283Z,11.83
2018-09-28T09:22:36.037Z,9.93
2018-09-28T09:25:04.736Z,13.00
2018-09-28T09:27:33.420Z,15.63
2018-09-28T09:30:02.078Z,13.53
2018-09-28T09:32:30.709Z,11.27
2018-09-28T09:34:59.374Z,14.30
2018-09-28T09:37:28.015Z,16.20
2018-09-28T09:39:56.723Z,13.80
2018-09-28T09:42:25.478Z,14.97
2018-09-28T09:44:54.141Z,15.40
2018-09-28T09:47:22.794Z,13.27
2018-09-28T09:49:51.416Z,11.77
2018-09-28T09:52:20.089Z,11.93
2018-09-28T09:54:48.813Z,12.37
2018-09-28T09:57:17.470Z,13.83
2018-09-28T09:59:46.178Z,13.23
2018-09-28T10:02:26.779Z,10.83
2018-09-28T10:04:55.445Z,10.63
2018-09-28T10:07:24.113Z,10.73
2018-09-28T10:09:52.763Z,11.83
2018-09-28T10:12:21.503Z,12.50
2018-09-28T10:14:50.122Z,11.30
2018-09-28T10:17:18.772Z,10.00
2018-09-28T10:19:47.491Z,9.83
2018-09-28T10:22:16.098Z,9.77
2018-09-28T10:24:44.736Z,11.03
2018-09-28T10:27:13.448Z,17.83
2018-09-28T10:29:42.074Z,12.30
2018-09-28T10:32:10.714Z,10.73
2018-09-28T10:43:19.208Z,9.23
2018-09-28T10:57:21.452Z,8.17
2018-09-28T10:59:50.077Z,7.13
2018-09-28T11:02:18.740Z,5.30
2018-09-28T11:04:47.475Z,10.77
2018-09-28T11:07:16.044Z,5.67
2018-09-28T11:09:49.600Z,8.93
2018-09-28T11:12:18.265Z,6.63
2018-09-28T11:14:46.925Z,8.30
2018-09-28T11:17:15.564Z,5.90
2018-09-28T11:19:44.423Z,8.60
2018-09-28T11:22:13.201Z,6.27
2018-09-28T11:24:41.857Z,9.40
2018-09-28T11:27:10.480Z,7.87
2018-09-28T11:29:46.632Z,7.67
2018-09-28T11:32:16.025Z,8.47
2018-09-28T11:34:44.730Z,4.80
2018-09-28T11:37:13.378Z,6.43
2018-09-28T11:39:42.064Z,10.27
2018-09-28T11:42:10.736Z,6.17
2018-09-28T11:44:39.431Z,10.47
2018-09-28T11:47:08.124Z,6.80
2018-09-28T11:49:36.786Z,10.13
2018-09-28T11:52:05.467Z,7.93
2018-09-28T11:54:34.106Z,8.07
2018-09-28T11:57:02.736Z,8.63
2018-09-28T11:59:31.381Z,6.40
2018-09-28T12:02:00.041Z,6.80
2018-09-28T12:04:28.689Z,8.00
2018-09-28T12:06:57.509Z,8.33
2018-09-28T12:09:26.176Z,6.07
2018-09-28T12:14:47.986Z,8.73
2018-09-28T12:17:16.703Z,6.93
2018-09-28T12:19:45.312Z,7.40
2018-09-28T12:22:13.944Z,5.30
2018-09-28T12:24:42.642Z,5.93
2018-09-28T12:27:11.305Z,6.43
2018-09-28T12:29:39.971Z,8.70
2018-09-28T12:32:08.593Z,5.90
2018-09-28T12:34:37.215Z,7.00
2018-09-28T12:37:05.902Z,7.87
2018-09-28T12:39:34.622Z,7.37
2018-09-28T12:42:03.205Z,8.13
2018-09-28T12:44:31.896Z,9.30
2018-09-28T12:47:00.500Z,8.87
2018-09-28T12:49:29.134Z,7.80
2018-09-28T12:51:57.752Z,11.00
2018-09-28T12:54:26.476Z,8.27
2018-09-28T12:56:55.073Z,7.13
2018-09-28T12:59:23.733Z,7.87
2018-09-28T13:01:52.367Z,8.23
2018-09-28T13:04:20.981Z,8.00
2018-09-28T13:06:50.422Z,8.50
2018-09-28T13:09:19.077Z,9.13
2018-09-28T13:11:47.761Z,8.40
2018-09-28T13:14:16.487Z,8.20
2018-09-28T13:16:45.085Z,17.20
2018-09-28T13:19:13.780Z,17.70
2018-09-28T13:21:42.440Z,10.00
2018-09-28T13:24:11.089Z,8.27
2018-09-28T13:26:39.799Z,7.87
2018-09-28T13:29:08.404Z,7.40
2018-09-28T13:31:37.024Z,7.20
2018-09-28T13:34:05.682Z,8.20
2018-09-28T13:36:34.362Z,5.83
2018-09-28T13:39:03.212Z,5.13
2018-09-28T13:41:31.897Z,6.20
2018-09-28T13:44:00.513Z,5.10
2018-09-28T13:46:29.224Z,9.07
2018-09-28T13:48:57.872Z,7.23
2018-09-28T13:51:26.541Z,8.83
2018-09-28T13:53:55.191Z,10.10
2018-09-28T13:56:23.942Z,8.00
2018-09-28T13:58:52.573Z,9.37
2018-09-28T14:01:21.204Z,8.20
2018-09-28T14:03:49.845Z,9.00
2018-09-28T14:06:18.514Z,7.50
2018-09-28T14:08:47.283Z,8.40
2018-09-28T14:11:15.864Z,7.43
2018-09-28T14:13:44.541Z,8.70
2018-09-28T14:16:13.215Z,7.80
2018-09-28T14:18:41.963Z,8.60
2018-09-28T14:21:10.595Z,9.40
2018-09-28T14:23:39.254Z,10.27
2018-09-28T14:26:07.944Z,9.63
2018-09-28T14:28:36.625Z,7.80
2018-09-28T14:31:05.291Z,6.60
2018-09-28T14:33:34.111Z,8.07
2018-09-28T14:36:03.305Z,7.23
2018-09-28T14:38:32.013Z,10.23
2018-09-28T14:41:00.660Z,6.77
2018-09-28T14:43:29.320Z,7.47
2018-09-28T14:45:58.046Z,6.37
2018-09-28T14:48:26.751Z,7.80
2018-09-28T14:50:55.386Z,10.80
2018-09-28T14:53:24.054Z,8.00
2018-09-28T14:55:53.809Z,8.30
2018-09-28T14:58:23.090Z,8.90
2018-09-28T15:00:51.913Z,13.50
2018-09-28T15:03:20.685Z,13.30
2018-09-28T15:05:49.384Z,8.73
2018-09-28T15:08:18.093Z,9.13
2018-09-28T15:10:46.821Z,9.13
2018-09-28T15:13:15.460Z,10.33
2018-09-28T15:15:44.086Z,8.87
2018-09-28T15:18:12.767Z,8.53
2018-09-28T15:20:41.501Z,8.90
2018-09-28T15:23:10.272Z,9.00
2018-09-28T15:25:38.929Z,6.93
2018-09-28T15:28:07.596Z,7.50
2018-09-28T15:30:36.319Z,9.27
2018-09-28T15:33:04.968Z,9.03
2018-09-28T15:35:33.628Z,10.60
2018-09-28T15:38:02.324Z,10.03
2018-09-28T15:40:30.960Z,10.10
2018-09-28T15:42:59.628Z,11.03
2018-09-28T15:45:28.253Z,10.53
2018-09-28T15:47:56.885Z,11.10
2018-09-28T15:50:25.591Z,13.23
2018-09-28T15:52:54.272Z,12.23
2018-09-28T15:55:22.966Z,23.17
2018-09-28T15:57:51.628Z,22.33
2018-09-28T16:00:21.366Z,45.37
2018-09-28T16:02:50.533Z,28.33
2018-09-28T16:05:19.211Z,17.87
2018-09-28T16:07:47.919Z,14.63
2018-09-28T16:10:16.651Z,12.73
2018-09-28T16:12:45.333Z,16.20
2018-09-28T16:15:14.033Z,11.93
2018-09-28T16:17:43.323Z,16.63
2018-09-28T16:20:13.059Z,13.00
2018-09-28T16:22:42.174Z,15.70
2018-09-28T16:25:11.219Z,16.70
2018-09-28T16:27:39.915Z,14.30
2018-09-28T16:30:08.633Z,17.13
2018-09-28T16:32:37.286Z,13.03
2018-09-28T16:35:06.295Z,11.90
2018-09-28T16:37:35.670Z,15.00
2018-09-28T16:40:04.431Z,16.37
2018-09-28T16:42:33.196Z,18.27
2018-09-28T16:45:01.878Z,12.67
2018-09-28T16:47:32.605Z,11.93
2018-09-28T16:50:01.299Z,18.67
2018-09-28T16:52:30.026Z,16.67
2018-09-28T16:54:58.724Z,18.07
2018-09-28T16:57:27.418Z,17.60
2018-09-28T16:59:56.084Z,17.77
2018-09-28T17:02:24.737Z,17.70
2018-09-28T17:04:53.465Z,16.80
2018-09-28T17:10:16.847Z,16.20
2018-09-28T17:12:49.550Z,14.70
2018-09-28T17:15:18.218Z,15.27
2018-09-28T17:17:53.289Z,16.27
2018-09-28T17:20:21.949Z,12.67
2018-09-28T17:22:50.614Z,12.10
2018-09-28T17:25:19.326Z,15.33
2018-09-28T17:27:48.021Z,13.70
2018-09-28T17:30:16.753Z,12.77
2018-09-28T17:32:45.421Z,14.90
2018-09-28T17:35:14.083Z,10.93
2018-09-28T17:37:42.849Z,11.27
2018-09-28T17:40:11.432Z,10.93
2018-09-28T17:42:40.105Z,12.17
2018-09-28T17:45:08.951Z,16.20
2018-09-28T17:47:37.614Z,9.57
2018-09-28T17:50:06.361Z,17.00
2018-09-28T17:52:35.021Z,11.80
2018-09-28T17:55:03.664Z,19.83
2018-09-28T17:57:32.313Z,8.27
2018-09-28T18:00:00.986Z,8.90
2018-09-28T18:02:29.620Z,9.60
2018-09-28T18:04:58.324Z,8.90
2018-09-28T18:07:26.983Z,7.87
2018-09-28T18:09:55.678Z,11.50
2018-09-28T18:12:24.349Z,10.20
2018-09-28T18:14:53.013Z,7.47
2018-09-28T18:17:21.675Z,10.53
2018-09-28T18:19:50.363Z,7.40
2018-09-28T18:22:19.054Z,7.40
2018-09-28T18:24:47.698Z,10.23
2018-09-28T18:27:16.460Z,7.20
2018-09-28T18:29:45.066Z,9.07
2018-09-28T18:32:13.752Z,6.73
2018-09-28T18:34:42.423Z,12.33
2018-09-28T18:37:11.105Z,8.67
2018-09-28T18:39:39.716Z,5.97
2018-09-28T18:42:08.411Z,5.90
2018-09-28T18:44:37.068Z,7.43
2018-09-28T18:47:06.000Z,7.27
2018-09-28T18:49:34.693Z,6.83
2018-09-28T18:52:03.350Z,8.33
2018-09-28T18:54:32.000Z,7.03
2018-09-28T18:57:00.680Z,7.43
2018-09-28T18:59:29.320Z,7.70
2018-09-28T19:01:57.984Z,8.07
2018-09-28T19:04:26.656Z,7.17
2018-09-28T19:06:55.288Z,7.33
2018-09-28T19:09:23.940Z,11.57
2018-09-28T19:11:52.581Z,10.73
2018-09-28T19:14:21.234Z,8.10
2018-09-28T19:16:49.881Z,9.30
2018-09-28T19:19:18.540Z,8.53
2018-09-28T19:21:47.179Z,8.27
2018-09-28T19:24:15.864Z,9.93
2018-09-28T19:26:44.500Z,9.47
2018-09-28T19:29:13.158Z,9.40
2018-09-28T19:31:41.831Z,9.10
2018-09-28T19:34:10.487Z,10.73
2018-09-28T19:36:39.169Z,8.67
2018-09-28T19:39:09.211Z,9.03
2018-09-28T19:41:38.445Z,9.33
2018-09-28T19:44:07.117Z,8.80
2018-09-28T19:46:35.749Z,9.03
2018-09-28T19:49:04.519Z,9.90
2018-09-28T19:51:33.177Z,9.83
2018-09-28T19:54:01.851Z,9.83
2018-09-28T19:56:30.514Z,10.00
2018-09-28T19:58:59.194Z,10.13
2018-09-28T20:01:27.847Z,9.47
2018-09-28T20:04:08.780Z,11.90
2018-09-28T20:06:37.541Z,8.63
2018-09-28T20:09:08.636Z,10.00
2018-09-28T20:11:37.331Z,11.43
2018-09-28T20:14:06.013Z,10.03
2018-09-28T20:16:34.742Z,10.73
2018-09-28T20:19:03.472Z,14.30
2018-09-28T20:21:32.599Z,11.93
2018-09-28T20:24:01.322Z,11.60
2018-09-28T20:26:30.013Z,15.90
2018-09-28T20:28:58.780Z,15.00
2018-09-28T20:31:27.441Z,12.37
2018-09-28T20:33:56.104Z,13.50
2018-09-28T20:36:24.788Z,17.37
2018-09-28T20:38:53.552Z,13.40
2018-09-28T20:41:28.173Z,14.53
2018-09-28T20:43:56.951Z,18.80
2018-09-28T20:46:26.645Z,14.20
2018-09-28T20:48:55.878Z,15.70
2018-09-28T20:51:25.630Z,16.60
2018-09-28T20:53:58.575Z,21.17
2018-09-28T20:56:27.364Z,16.93
2018-09-28T20:58:56.880Z,15.00
2018-09-28T21:01:25.707Z,21.70
2018-09-28T21:03:54.457Z,14.00
2018-09-28T21:06:23.096Z,17.57
2018-09-28T21:08:51.779Z,13.67
2018-09-28T21:11:20.432Z,15.57
2018-09-28T21:13:49.637Z,12.70
2018-09-28T21:16:18.331Z,16.43
2018-09-28T21:18:47.011Z,14.03
2018-09-28T21:21:15.709Z,15.20
2018-09-28T21:23:44.375Z,12.30
2018-09-28T21:26:13.028Z,19.07
2018-09-28T21:28:41.685Z,12.77
2018-09-28T21:31:10.965Z,20.30
2018-09-28T21:33:39.635Z,13.23
2018-09-28T21:36:08.297Z,12.03
2018-09-28T21:38:36.931Z,11.50
2018-09-28T21:41:05.693Z,12.67
2018-09-28T21:43:34.314Z,13.10
2018-09-28T21:46:03.019Z,10.33
2018-09-28T21:48:31.660Z,11.70
2018-09-28T21:51:00.335Z,9.80
2018-09-28T21:56:21.932Z,12.83
2018-09-28T21:58:50.609Z,8.57
2018-09-28T22:01:20.112Z,10.57
2018-09-28T22:03:50.044Z,9.30
2018-09-28T22:06:18.709Z,12.80
2018-09-28T22:08:47.353Z,10.60
2018-09-28T22:11:16.128Z,9.43
2018-09-28T22:13:44.858Z,8.90
2018-09-28T22:16:13.566Z,13.20
2018-09-28T22:18:42.232Z,9.90
2018-09-28T22:21:10.894Z,12.53
2018-09-28T22:23:39.557Z,8.90
2018-09-28T22:29:01.341Z,8.70
2018-09-28T22:31:29.980Z,7.70
2018-09-28T22:33:58.656Z,10.73
2018-09-28T22:36:27.309Z,8.90
2018-09-28T22:38:55.997Z,9.90
2018-09-28T22:41:24.713Z,7.20
2018-09-28T22:43:53.424Z,6.43
2018-09-28T22:46:22.018Z,6.63
2018-09-28T22:48:50.681Z,6.30
2018-09-28T22:51:19.302Z,7.33
2018-09-28T22:53:47.953Z,10.50
2018-09-28T22:56:16.600Z,9.40
2018-09-28T22:58:45.248Z,6.37
2018-09-28T23:01:13.908Z,7.37
2018-09-28T23:03:42.611Z,9.43
2018-09-28T23:06:11.288Z,7.37
2018-09-28T23:08:39.906Z,7.50
2018-09-28T23:11:08.836Z,7.90
2018-09-28T23:13:37.580Z,5.03
2018-09-28T23:16:06.283Z,5.07
2018-09-28T23:18:34.915Z,5.07
2018-09-28T23:21:03.556Z,4.10
2018-09-28T23:23:32.220Z,7.23
2018-09-28T23:26:00.857Z,5.97
2018-09-28T23:28:29.510Z,6.37
2018-09-28T23:30:58.144Z,5.70
2018-09-28T23:33:26.850Z,6.33
2018-09-28T23:35:55.537Z,7.90
2018-09-28T23:38:24.181Z,3.73
2018-09-28T23:40:52.840Z,3.73
2018-09-28T23:43:21.473Z,4.73
2018-09-28T23:45:50.202Z,5.60
2018-09-28T23:48:18.876Z,5.13
2018-09-28T23:50:47.517Z,3.80
2018-09-28T23:53:16.230Z,6.93
2018-09-28T23:55:44.888Z,4.10
2018-09-28T23:58:13.535Z,4.00
